createdAt,value
2023-05-16T00:00:40.524Z,22.00
2023-05-16T00:03:07.557Z,22.00
2023-05-16T00:05:34.559Z,22.00
2023-05-16T00:08:01.389Z,22.00
2023-05-16T00:10:28.523Z,22.00
2023-05-16T00:12:56.384Z,22.00
2023-05-16T00:15:24.958Z,22.00
2023-05-16T00:17:52.041Z,22.00
2023-05-16T00:20:23.203Z,22.00
2023-05-16T00:22:50.741Z,22.00
2023-05-16T00:25:17.763Z,22.00
2023-05-16T00:27:44.606Z,22.00
2023-05-16T00:30:11.963Z,22.00
2023-05-16T00:32:39.322Z,22.00
2023-05-16T00:35:10.554Z,21.90
2023-05-16T00:37:38.658Z,21.90
2023-05-16T00:40:06.519Z,21.90
2023-05-16T00:42:33.701Z,21.90
2023-05-16T00:45:00.631Z,21.90
2023-05-16T00:47:28.759Z,21.90
2023-05-16T00:49:56.387Z,21.90
2023-05-16T00:52:23.448Z,21.90
2023-05-16T00:54:51.767Z,21.90
2023-05-16T00:57:19.335Z,21.90
2023-05-16T00:59:46.968Z,21.90
2023-05-16T01:02:14.594Z,21.90
2023-05-16T01:04:43.329Z,21.90
2023-05-16T01:07:10.497Z,21.90
2023-05-16T01:09:38.215Z,21.90
2023-05-16T01:12:27.062Z,21.90
2023-05-16T01:15:02.319Z,21.80
2023-05-16T01:17:57.884Z,21.80
2023-05-16T01:20:43.251Z,21.80
2023-05-16T01:23:42.010Z,21.80
2023-05-16T01:26:38.006Z,21.80
2023-05-16T01:29:07.532Z,21.80
2023-05-16T01:31:35.430Z,21.80
2023-05-16T01:34:02.260Z,21.80
2023-05-16T01:36:49.478Z,21.70
2023-05-16T01:39:25.242Z,21.70
2023-05-16T01:42:14.839Z,21.80
2023-05-16T01:44:54.415Z,21.70
2023-05-16T01:47:23.356Z,21.70
2023-05-16T01:50:14.137Z,21.70
2023-05-16T01:53:06.778Z,21.70
2023-05-16T01:55:47.007Z,21.70
2023-05-16T01:58:20.218Z,21.70
2023-05-16T02:00:47.342Z,21.70
2023-05-16T02:03:14.514Z,21.70
2023-05-16T02:05:41.655Z,21.70
2023-05-16T02:08:11.867Z,21.70
2023-05-16T02:10:40.096Z,21.70
2023-05-16T02:13:06.985Z,21.70
2023-05-16T02:15:33.888Z,21.70
2023-05-16T02:18:00.755Z,21.70
2023-05-16T02:20:27.678Z,21.60
2023-05-16T02:22:54.701Z,21.70
2023-05-16T02:25:21.620Z,21.60
2023-05-16T02:27:49.389Z,21.60
2023-05-16T02:30:16.354Z,21.60
2023-05-16T02:32:45.167Z,21.60
2023-05-16T02:35:12.501Z,21.60
2023-05-16T02:37:40.500Z,21.60
2023-05-16T02:40:08.988Z,21.60
2023-05-16T02:42:36.996Z,21.60
2023-05-16T02:45:04.046Z,21.60
2023-05-16T02:47:31.117Z,21.50
2023-05-16T02:49:58.080Z,21.50
2023-05-16T02:52:25.048Z,21.50
2023-05-16T02:55:04.597Z,21.50
2023-05-16T02:57:38.773Z,21.50
2023-05-16T03:00:06.394Z,21.50
2023-05-16T03:02:33.508Z,21.50
2023-05-16T03:05:00.512Z,21.50
2023-05-16T03:07:27.358Z,21.50
2023-05-16T03:09:54.239Z,21.50
2023-05-16T03:12:21.008Z,21.50
2023-05-16T03:14:47.838Z,21.50
2023-05-16T03:17:14.692Z,21.50
2023-05-16T03:19:41.523Z,21.40
2023-05-16T03:22:08.327Z,21.50
2023-05-16T03:24:35.224Z,21.40
2023-05-16T03:27:03.733Z,21.40
2023-05-16T03:29:30.831Z,21.40
2023-05-16T03:31:57.992Z,21.40
2023-05-16T03:34:24.957Z,21.40
2023-05-16T03:36:52.370Z,21.40
2023-05-16T03:39:19.281Z,21.40
2023-05-16T03:41:46.194Z,21.40
2023-05-16T03:44:12.994Z,21.40
2023-05-16T03:46:39.908Z,21.40
2023-05-16T03:49:06.803Z,21.40
2023-05-16T03:51:34.188Z,21.30
2023-05-16T03:54:01.175Z,21.40
2023-05-16T03:56:28.109Z,21.40
2023-05-16T03:58:54.923Z,21.40
2023-05-16T04:01:22.502Z,21.40
2023-05-16T04:03:50.768Z,21.30
2023-05-16T04:06:17.977Z,21.40
2023-05-16T04:08:45.052Z,21.30
2023-05-16T04:11:12.193Z,21.30
2023-05-16T04:13:39.259Z,21.30
2023-05-16T04:16:06.752Z,21.30
2023-05-16T04:18:33.876Z,21.30
2023-05-16T04:21:00.864Z,21.30
2023-05-16T04:23:27.649Z,21.30
2023-05-16T04:25:56.441Z,21.30
2023-05-16T04:28:23.465Z,21.30
2023-05-16T04:30:50.625Z,21.30
2023-05-16T04:33:18.695Z,21.30
2023-05-16T04:35:45.626Z,21.30
2023-05-16T04:38:12.500Z,21.30
2023-05-16T04:40:41.675Z,21.30
2023-05-16T04:43:08.605Z,21.30
2023-05-16T04:45:37.639Z,21.30
2023-05-16T04:48:05.112Z,21.30
2023-05-16T04:50:32.144Z,21.30
2023-05-16T04:52:59.054Z,21.30
2023-05-16T04:55:26.152Z,21.30
2023-05-16T04:57:53.203Z,21.30
2023-05-16T05:00:20.630Z,21.30
2023-05-16T05:02:47.523Z,21.30
2023-05-16T05:05:14.497Z,21.30
2023-05-16T05:07:41.534Z,21.30
2023-05-16T05:10:08.925Z,21.30
2023-05-16T05:12:36.100Z,21.30
2023-05-16T05:15:03.719Z,21.30
2023-05-16T05:17:30.598Z,21.30
2023-05-16T05:19:57.662Z,21.30
2023-05-16T05:22:24.536Z,21.30
2023-05-16T05:24:51.827Z,21.30
2023-05-16T05:27:18.706Z,21.30
2023-05-16T05:29:45.885Z,21.40
2023-05-16T05:32:12.888Z,21.30
2023-05-16T05:34:39.711Z,21.40
2023-05-16T05:37:06.515Z,21.40
2023-05-16T05:39:33.340Z,21.40
2023-05-16T05:42:00.442Z,21.40
2023-05-16T05:44:27.248Z,21.40
2023-05-16T05:46:54.147Z,21.40
2023-05-16T05:49:21.153Z,21.40
2023-05-16T05:51:48.078Z,21.40
2023-05-16T05:54:14.967Z,21.40
2023-05-16T05:56:42.210Z,21.40
2023-05-16T05:59:09.152Z,21.40
2023-05-16T06:01:35.973Z,21.40
2023-05-16T06:04:02.873Z,21.50
2023-05-16T06:06:29.851Z,21.50
2023-05-16T06:08:56.703Z,21.50
2023-05-16T06:11:25.609Z,21.60
2023-05-16T06:13:53.015Z,21.50
2023-05-16T06:16:20.388Z,21.60
2023-05-16T06:18:48.918Z,21.60
2023-05-16T06:21:15.771Z,21.60
2023-05-16T06:23:42.623Z,21.60
2023-05-16T06:26:09.526Z,21.70
2023-05-16T06:28:36.469Z,21.70
2023-05-16T06:31:03.335Z,21.70
2023-05-16T06:33:30.235Z,21.80
2023-05-16T06:35:57.042Z,21.80
2023-05-16T06:38:23.840Z,21.80
2023-05-16T06:40:50.632Z,21.90
2023-05-16T06:43:17.952Z,21.90
2023-05-16T06:45:46.649Z,21.90
2023-05-16T06:48:15.266Z,22.00
2023-05-16T06:50:42.380Z,22.00
2023-05-16T06:53:09.452Z,22.10
2023-05-16T06:55:36.334Z,22.10
2023-05-16T06:58:03.210Z,22.10
2023-05-16T07:00:30.295Z,22.20
2023-05-16T07:02:57.265Z,22.20
2023-05-16T07:05:24.374Z,22.30
2023-05-16T07:07:51.315Z,22.30
2023-05-16T07:10:18.325Z,22.30
2023-05-16T07:12:45.885Z,22.40
2023-05-16T07:15:13.149Z,22.40
2023-05-16T07:17:40.177Z,22.40
2023-05-16T07:20:10.130Z,22.50
2023-05-16T07:22:37.011Z,22.50
2023-05-16T07:25:04.467Z,22.50
2023-05-16T07:27:32.131Z,22.50
2023-05-16T07:29:59.036Z,22.50
2023-05-16T07:32:25.985Z,22.60
2023-05-16T07:34:52.924Z,22.60
2023-05-16T07:37:20.717Z,22.60
2023-05-16T07:39:47.565Z,22.60
2023-05-16T07:42:14.654Z,22.70
2023-05-16T07:44:41.597Z,22.70
2023-05-16T07:47:08.723Z,22.80
2023-05-16T07:49:35.564Z,22.80
2023-05-16T07:52:02.447Z,22.80
2023-05-16T07:54:29.395Z,22.90
2023-05-16T07:56:56.428Z,22.80
2023-05-16T07:59:23.459Z,22.90
2023-05-16T08:01:50.586Z,22.90
2023-05-16T08:04:17.497Z,22.90
2023-05-16T08:06:44.423Z,22.90
2023-05-16T08:09:11.516Z,22.90
2023-05-16T08:11:39.947Z,22.90
2023-05-16T08:14:06.967Z,22.90
2023-05-16T08:16:34.003Z,22.90
2023-05-16T08:19:00.987Z,22.90
2023-05-16T08:21:28.023Z,22.90
2023-05-16T08:23:54.899Z,22.90
2023-05-16T08:26:22.035Z,22.80
2023-05-16T08:28:49.814Z,22.90
2023-05-16T08:31:17.111Z,22.80
2023-05-16T08:33:44.103Z,22.90
2023-05-16T08:36:11.008Z,22.90
2023-05-16T08:38:37.854Z,22.90
2023-05-16T08:41:04.851Z,22.90
2023-05-16T08:43:33.403Z,22.90
2023-05-16T08:46:00.327Z,22.90
2023-05-16T08:48:30.980Z,23.00
2023-05-16T08:50:57.991Z,23.00
2023-05-16T08:53:37.715Z,23.00
2023-05-16T08:56:05.642Z,23.10
2023-05-16T08:58:32.702Z,23.10
2023-05-16T09:00:59.696Z,23.10
2023-05-16T09:03:29.064Z,23.10
2023-05-16T09:05:56.185Z,23.10
2023-05-16T09:08:23.101Z,23.00
2023-05-16T09:10:49.896Z,23.00
2023-05-16T09:13:16.871Z,23.00
2023-05-16T09:15:43.843Z,23.00
2023-05-16T09:18:13.438Z,23.10
2023-05-16T09:20:47.021Z,23.10
2023-05-16T09:23:13.958Z,23.10
2023-05-16T09:25:40.913Z,23.10
2023-05-16T09:28:12.218Z,23.10
2023-05-16T09:30:39.506Z,23.10
2023-05-16T09:33:08.031Z,23.10
2023-05-16T09:35:44.831Z,23.10
2023-05-16T09:38:17.198Z,23.10
2023-05-16T09:40:45.501Z,23.20
2023-05-16T09:43:16.825Z,23.10
2023-05-16T09:45:48.734Z,23.20
2023-05-16T09:48:17.225Z,23.20
2023-05-16T09:50:52.285Z,23.20
2023-05-16T09:53:29.668Z,23.20
2023-05-16T09:56:04.549Z,23.20
2023-05-16T09:58:32.842Z,23.20
2023-05-16T10:00:59.902Z,23.20
2023-05-16T10:03:27.481Z,23.30
2023-05-16T10:05:55.943Z,23.30
2023-05-16T10:08:25.396Z,23.30
2023-05-16T10:10:54.273Z,23.20
2023-05-16T10:13:22.980Z,23.30
2023-05-16T10:15:50.984Z,23.30
2023-05-16T10:18:19.636Z,23.30
2023-05-16T10:20:51.200Z,23.30
2023-05-16T10:23:22.567Z,23.30
2023-05-16T10:25:50.147Z,23.40
2023-05-16T10:28:17.094Z,23.40
2023-05-16T10:30:46.603Z,23.40
2023-05-16T10:33:15.610Z,23.40
2023-05-16T10:35:43.751Z,23.40
2023-05-16T10:38:12.848Z,23.40
2023-05-16T10:40:40.813Z,23.40
2023-05-16T10:43:08.878Z,23.40
2023-05-16T10:45:40.387Z,23.40
2023-05-16T10:48:09.802Z,23.50
2023-05-16T10:50:45.651Z,23.40
2023-05-16T10:53:20.802Z,23.50
2023-05-16T10:56:09.130Z,23.50
2023-05-16T10:58:39.024Z,23.50
2023-05-16T11:01:35.449Z,23.50
2023-05-16T11:04:02.782Z,23.50
2023-05-16T11:06:51.526Z,23.50
2023-05-16T11:09:27.638Z,23.50
2023-05-16T11:11:56.236Z,23.50
2023-05-16T11:14:24.187Z,23.50
2023-05-16T11:17:06.675Z,23.50
2023-05-16T11:19:33.648Z,23.50
2023-05-16T11:22:21.630Z,23.50
2023-05-16T11:25:06.628Z,23.50
2023-05-16T11:27:53.734Z,23.50
2023-05-16T11:30:21.898Z,23.50
2023-05-16T11:32:50.646Z,23.50
2023-05-16T11:35:18.366Z,23.50
2023-05-16T11:37:46.975Z,23.50
2023-05-16T11:40:15.621Z,23.50
2023-05-16T11:42:44.768Z,23.50
2023-05-16T11:45:16.852Z,23.50
2023-05-16T11:47:48.160Z,23.40
2023-05-16T11:50:17.816Z,23.40
2023-05-16T11:52:58.059Z,23.40
2023-05-16T11:55:41.805Z,23.40
2023-05-16T11:58:10.349Z,23.40
2023-05-16T12:00:37.295Z,23.40
2023-05-16T12:03:05.436Z,23.40
2023-05-16T12:05:35.020Z,23.30
2023-05-16T12:08:04.670Z,23.30
2023-05-16T12:10:34.244Z,23.30
2023-05-16T12:13:02.143Z,23.30
2023-05-16T12:15:29.682Z,23.30
2023-05-16T12:17:57.258Z,23.20
2023-05-16T12:20:26.105Z,23.20
2023-05-16T12:22:53.351Z,23.20
2023-05-16T12:25:36.105Z,23.20
2023-05-16T12:28:04.410Z,23.20
2023-05-16T12:30:32.945Z,23.20
2023-05-16T12:33:03.410Z,23.20
2023-05-16T12:35:33.259Z,23.20
2023-05-16T12:38:04.599Z,23.10
2023-05-16T12:40:32.983Z,23.10
2023-05-16T12:42:59.888Z,23.10
2023-05-16T12:45:29.923Z,23.10
2023-05-16T12:47:56.849Z,23.10
2023-05-16T12:50:27.346Z,23.20
2023-05-16T12:53:00.128Z,23.10
2023-05-16T12:55:27.340Z,23.10
2023-05-16T12:57:57.014Z,23.10
2023-05-16T13:00:24.420Z,23.10
2023-05-16T13:02:52.366Z,23.10
2023-05-16T13:05:20.604Z,23.20
2023-05-16T13:07:47.565Z,23.20
2023-05-16T13:10:14.477Z,23.20
2023-05-16T13:12:41.868Z,23.20
2023-05-16T13:15:10.482Z,23.20
2023-05-16T13:17:39.124Z,23.20
2023-05-16T13:20:10.484Z,23.20
2023-05-16T13:22:37.685Z,23.20
2023-05-16T13:25:06.109Z,23.20
2023-05-16T13:27:33.459Z,23.20
2023-05-16T13:30:00.668Z,23.20
2023-05-16T13:32:27.854Z,23.20
2023-05-16T13:34:55.186Z,23.20
2023-05-16T13:37:24.411Z,23.20
2023-05-16T13:39:51.482Z,23.20
2023-05-16T13:42:18.432Z,23.10
2023-05-16T13:44:45.421Z,23.10
2023-05-16T13:47:12.372Z,23.10
2023-05-16T13:49:39.811Z,23.10
2023-05-16T13:52:07.239Z,23.10
2023-05-16T13:54:34.173Z,23.10
2023-05-16T13:57:02.297Z,23.10
2023-05-16T13:59:48.792Z,23.10
2023-05-16T14:02:16.302Z,23.10
2023-05-16T14:04:43.235Z,23.10
2023-05-16T14:07:10.360Z,23.10
2023-05-16T14:09:42.334Z,23.10
2023-05-16T14:12:09.291Z,23.10
2023-05-16T14:14:36.495Z,23.00
2023-05-16T14:17:04.242Z,23.00
2023-05-16T14:19:31.620Z,23.00
2023-05-16T14:21:58.724Z,23.00
2023-05-16T14:24:25.621Z,23.00
2023-05-16T14:26:58.300Z,23.00
2023-05-16T14:29:25.887Z,23.00
2023-05-16T14:31:53.305Z,23.00
2023-05-16T14:34:20.586Z,23.00
2023-05-16T14:36:47.929Z,23.00
2023-05-16T14:39:14.725Z,23.00
2023-05-16T14:41:41.563Z,23.00
2023-05-16T14:44:08.595Z,23.00
2023-05-16T14:46:35.875Z,23.00
2023-05-16T14:49:02.856Z,23.00
2023-05-16T14:51:29.988Z,23.00
2023-05-16T14:53:56.986Z,23.00
2023-05-16T14:56:26.915Z,23.00
2023-05-16T14:58:54.209Z,23.00
2023-05-16T15:01:21.506Z,23.00
2023-05-16T15:03:55.159Z,22.90
2023-05-16T15:06:22.758Z,22.90
2023-05-16T15:08:49.583Z,22.90
2023-05-16T15:11:16.491Z,22.90
2023-05-16T15:13:43.449Z,22.90
2023-05-16T15:16:10.571Z,22.90
2023-05-16T15:18:37.590Z,22.90
2023-05-16T15:21:04.632Z,22.90
2023-05-16T15:23:31.687Z,22.90
2023-05-16T15:25:58.519Z,22.90
2023-05-16T15:28:25.429Z,22.90
2023-05-16T15:30:52.275Z,22.90
2023-05-16T15:33:19.140Z,22.90
2023-05-16T15:35:46.363Z,23.00
2023-05-16T15:38:13.219Z,23.00
2023-05-16T15:40:40.136Z,23.00
2023-05-16T15:43:07.189Z,23.00
2023-05-16T15:45:36.339Z,23.00
2023-05-16T15:48:04.381Z,23.10
2023-05-16T15:50:31.343Z,23.10
2023-05-16T15:53:01.097Z,23.00
2023-05-16T15:55:28.292Z,23.00
2023-05-16T15:57:57.276Z,23.00
2023-05-16T16:00:24.972Z,23.00
2023-05-16T16:02:52.293Z,23.00
2023-05-16T16:05:19.343Z,23.00
2023-05-16T16:07:46.285Z,23.00
2023-05-16T16:10:13.253Z,23.00
2023-05-16T16:12:40.287Z,22.90
2023-05-16T16:15:09.388Z,22.90
2023-05-16T16:17:36.322Z,22.90
2023-05-16T16:20:03.534Z,22.90
2023-05-16T16:22:30.462Z,22.90
2023-05-16T16:24:57.385Z,22.90
2023-05-16T16:27:24.761Z,22.80
2023-05-16T16:29:51.681Z,22.80
2023-05-16T16:32:18.523Z,22.80
2023-05-16T16:34:45.417Z,22.80
2023-05-16T16:37:12.537Z,22.70
2023-05-16T16:39:39.771Z,22.70
2023-05-16T16:42:08.091Z,22.70
2023-05-16T16:44:34.985Z,22.70
2023-05-16T16:47:02.282Z,22.70
2023-05-16T16:49:31.327Z,22.70
2023-05-16T16:51:58.211Z,22.70
2023-05-16T16:54:25.175Z,22.70
2023-05-16T16:56:52.556Z,22.70
2023-05-16T16:59:19.581Z,22.70
2023-05-16T17:01:46.773Z,22.70
2023-05-16T17:04:13.739Z,22.70
2023-05-16T17:06:41.005Z,22.70
2023-05-16T17:09:13.627Z,22.70
2023-05-16T17:11:42.225Z,22.70
2023-05-16T17:14:10.793Z,22.70
2023-05-16T17:16:38.527Z,22.70
2023-05-16T17:19:05.854Z,22.70
2023-05-16T17:21:34.746Z,22.70
2023-05-16T17:24:01.773Z,22.60
2023-05-16T17:26:29.193Z,22.60
2023-05-16T17:29:00.201Z,22.60
2023-05-16T17:31:27.653Z,22.60
2023-05-16T17:33:54.533Z,22.60
2023-05-16T17:36:21.734Z,22.60
2023-05-16T17:38:48.811Z,22.60
2023-05-16T17:41:16.320Z,22.60
2023-05-16T17:43:45.357Z,22.60
2023-05-16T17:46:12.808Z,22.60
2023-05-16T17:48:39.685Z,22.60
2023-05-16T17:51:06.820Z,22.50
2023-05-16T17:53:33.800Z,22.50
2023-05-16T17:56:00.802Z,22.50
2023-05-16T17:58:28.064Z,22.50
2023-05-16T18:00:55.181Z,22.50
2023-05-16T18:03:22.226Z,22.50
2023-05-16T18:05:49.794Z,22.50
2023-05-16T18:08:17.177Z,22.50
2023-05-16T18:13:17.415Z,22.50
2023-05-16T18:15:44.345Z,22.50
2023-05-16T18:18:11.782Z,22.50
2023-05-16T18:20:38.903Z,22.50
2023-05-16T18:23:05.737Z,22.50
2023-05-16T18:25:32.579Z,22.50
2023-05-16T18:27:59.543Z,22.50
2023-05-16T18:30:26.638Z,22.50
2023-05-16T18:32:53.711Z,22.50
2023-05-16T18:35:20.958Z,22.50
2023-05-16T18:37:47.852Z,22.50
2023-05-16T18:40:14.831Z,22.50
2023-05-16T18:42:41.734Z,22.50
2023-05-16T18:45:09.058Z,22.50
2023-05-16T18:47:35.992Z,22.50
2023-05-16T18:50:03.469Z,22.50
2023-05-16T18:52:30.471Z,22.50
2023-05-16T18:54:57.542Z,22.50
2023-05-16T18:57:24.429Z,22.50
2023-05-16T18:59:53.579Z,22.40
2023-05-16T19:02:27.274Z,22.40
2023-05-16T19:05:01.714Z,22.40
2023-05-16T19:07:28.835Z,22.40
2023-05-16T19:09:55.691Z,22.40
2023-05-16T19:12:23.016Z,22.40
2023-05-16T19:14:49.852Z,22.40
2023-05-16T19:17:16.720Z,22.40
2023-05-16T19:19:43.655Z,22.40
2023-05-16T19:22:10.749Z,22.40
2023-05-16T19:24:37.640Z,22.40
2023-05-16T19:27:04.679Z,22.40
2023-05-16T19:29:31.874Z,22.40
2023-05-16T19:31:58.795Z,22.40
2023-05-16T19:34:28.417Z,22.40
2023-05-16T19:36:55.558Z,22.40
2023-05-16T19:39:22.475Z,22.40
2023-05-16T19:41:52.089Z,22.30
2023-05-16T19:44:19.328Z,22.30
2023-05-16T19:46:46.542Z,22.30
2023-05-16T19:49:14.809Z,22.30
2023-05-16T19:51:42.405Z,22.40
2023-05-16T19:54:09.634Z,22.30
2023-05-16T19:56:36.566Z,22.30
2023-05-16T19:59:03.549Z,22.40
2023-05-16T20:01:30.785Z,22.30
2023-05-16T20:03:57.717Z,22.30
2023-05-16T20:06:24.575Z,22.30
2023-05-16T20:08:51.477Z,22.30
2023-05-16T20:11:18.297Z,22.30
2023-05-16T20:13:45.149Z,22.30
2023-05-16T20:16:12.720Z,22.30
2023-05-16T20:18:39.667Z,22.30
2023-05-16T20:21:06.670Z,22.30
2023-05-16T20:23:35.016Z,22.30
2023-05-16T20:26:02.686Z,22.30
2023-05-16T20:28:30.603Z,22.30
2023-05-16T20:30:57.475Z,22.30
2023-05-16T20:33:24.468Z,22.20
2023-05-16T20:35:51.477Z,22.20
2023-05-16T20:38:18.274Z,22.20
2023-05-16T20:40:45.118Z,22.20
2023-05-16T20:43:12.014Z,22.20
2023-05-16T20:45:38.923Z,22.20
2023-05-16T20:48:05.905Z,22.20
2023-05-16T20:50:36.046Z,22.20
2023-05-16T20:53:03.576Z,22.20
2023-05-16T20:55:31.207Z,22.20
2023-05-16T20:57:58.493Z,22.10
2023-05-16T21:00:25.529Z,22.10
2023-05-16T21:02:52.426Z,22.10
2023-05-16T21:05:34.533Z,22.10
2023-05-16T21:08:01.420Z,22.10
2023-05-16T21:10:28.279Z,22.10
2023-05-16T21:12:55.135Z,22.00
2023-05-16T21:15:23.198Z,22.00
2023-05-16T21:17:51.215Z,22.00
2023-05-16T21:20:18.314Z,22.00
2023-05-16T21:22:45.480Z,22.00
2023-05-16T21:25:12.407Z,22.00
2023-05-16T21:27:39.967Z,22.00
2023-05-16T21:30:07.467Z,22.00
2023-05-16T21:32:34.422Z,22.00
2023-05-16T21:35:01.380Z,22.00
2023-05-16T21:37:28.270Z,22.00
2023-05-16T21:39:55.324Z,22.00
2023-05-16T21:42:22.183Z,22.00
2023-05-16T21:44:49.133Z,21.90
2023-05-16T21:47:15.981Z,22.00
2023-05-16T21:49:43.093Z,22.00
2023-05-16T21:52:10.205Z,21.90
2023-05-16T21:54:37.436Z,21.90
2023-05-16T21:57:04.453Z,21.90
2023-05-16T21:59:31.260Z,21.90
2023-05-16T22:01:58.157Z,21.90
2023-05-16T22:04:25.127Z,21.90
2023-05-16T22:06:52.267Z,21.90
2023-05-16T22:09:19.120Z,21.90
2023-05-16T22:11:45.968Z,21.90
2023-05-16T22:14:12.860Z,21.90
2023-05-16T22:16:39.876Z,21.90
2023-05-16T22:19:06.808Z,21.90
2023-05-16T22:21:33.689Z,21.90
2023-05-16T22:24:00.650Z,21.90
2023-05-16T22:26:27.530Z,21.80
2023-05-16T22:28:54.437Z,21.80
2023-05-16T22:31:21.375Z,21.80
2023-05-16T22:33:48.307Z,21.80
2023-05-16T22:36:15.155Z,21.80
2023-05-16T22:38:41.989Z,21.80
2023-05-16T22:41:08.914Z,21.80
2023-05-16T22:43:35.795Z,21.80
2023-05-16T22:46:03.422Z,21.80
2023-05-16T22:48:30.539Z,21.80
2023-05-16T22:50:57.872Z,21.80
2023-05-16T22:53:24.765Z,21.80
2023-05-16T22:55:51.639Z,21.70
2023-05-16T22:58:18.520Z,21.70
2023-05-16T23:00:45.517Z,21.70
2023-05-16T23:03:12.532Z,21.70
2023-05-16T23:05:39.504Z,21.70
2023-05-16T23:08:06.501Z,21.70
2023-05-16T23:10:33.449Z,21.70
2023-05-16T23:13:00.292Z,21.70
2023-05-16T23:15:27.580Z,21.70
2023-05-16T23:17:54.780Z,21.70
2023-05-16T23:20:22.472Z,21.70
2023-05-16T23:22:49.367Z,21.70
2023-05-16T23:25:16.171Z,21.70
2023-05-16T23:27:43.096Z,21.60
2023-05-16T23:30:11.257Z,21.60
2023-05-16T23:32:38.223Z,21.60
2023-05-16T23:35:06.088Z,21.60
2023-05-16T23:37:33.094Z,21.60
2023-05-16T23:39:59.990Z,21.60
2023-05-16T23:42:26.858Z,21.60
2023-05-16T23:44:53.782Z,21.60
2023-05-16T23:47:20.696Z,21.60
2023-05-16T23:49:47.627Z,21.60
2023-05-16T23:52:14.464Z,21.60
2023-05-16T23:54:41.419Z,21.60
2023-05-16T23:57:08.310Z,21.60
2023-05-16T23:59:35.300Z,21.60
